Time;durP1;ratioP1;P1;durP2;ratioP2;P2;SDS_P1;SDS_P2;PMS_P1;PMS_P2;Temp;Humidity;BMP_temperature;BMP_pressure;BME280_temperature;BME280_humidity;BME280_pressure;Samples;Min_cycle;Max_cycle;Signal;HPM_P1;HPM_P2
2021/10/19 00:01:02;;;;;;;7.93;6.07;;;6.70;99.90;;;;;;491959;241;27417;-75
2021/10/19 00:03:03;;;;;;;5.85;5.22;;;6.30;99.90;;;;;;491912;241;27486;-75
2021/10/19 00:05:04;;;;;;;7.50;4.97;;;6.10;99.90;;;;;;491982;241;27378;-74
2021/10/19 00:07:06;;;;;;;6.70;5.25;;;6.10;99.90;;;;;;491948;241;27432;-74
2021/10/19 00:09:07;;;;;;;5.68;4.70;;;6.10;99.90;;;;;;491943;241;27377;-74
2021/10/19 00:11:08;;;;;;;6.15;5.07;;;6.20;99.90;;;;;;491938;241;27462;-75
2021/10/19 00:13:09;;;;;;;6.60;5.22;;;6.20;99.90;;;;;;491823;242;27910;-75
2021/10/19 00:15:11;;;;;;;5.65;4.90;;;6.20;99.90;;;;;;491948;241;27828;-74
2021/10/19 00:17:12;;;;;;;6.55;5.00;;;6.20;99.90;;;;;;491909;241;27418;-75
2021/10/19 00:19:13;;;;;;;5.82;4.60;;;6.30;99.90;;;;;;491928;241;27410;-74
2021/10/19 00:21:14;;;;;;;7.62;4.82;;;6.30;99.90;;;;;;491894;241;27389;-75
2021/10/19 00:23:16;;;;;;;4.78;4.37;;;6.40;99.90;;;;;;491976;241;27406;-75
2021/10/19 00:25:17;;;;;;;5.15;4.65;;;6.50;99.90;;;;;;491942;241;27374;-75
2021/10/19 00:27:18;;;;;;;5.57;4.80;;;6.50;99.90;;;;;;491923;241;27882;-75
2021/10/19 00:29:19;;;;;;;5.47;4.80;;;6.50;99.90;;;;;;491953;241;28724;-74
2021/10/19 00:31:21;;;;;;;5.35;4.85;;;6.50;99.90;;;;;;491928;241;27460;-74
2021/10/19 00:33:22;;;;;;;5.87;5.28;;;6.50;99.90;;;;;;491957;241;27418;-74
2021/10/19 00:35:23;;;;;;;5.43;4.18;;;6.60;99.90;;;;;;491954;241;27469;-75
2021/10/19 00:37:24;;;;;;;4.90;4.32;;;6.70;99.90;;;;;;491937;242;27422;-74
2021/10/19 00:39:26;;;;;;;4.55;4.15;;;6.70;99.90;;;;;;491910;239;27494;-74
2021/10/19 00:41:29;;;;;;;4.82;3.85;;;6.70;99.90;;;;;;491941;241;27572;-74
2021/10/19 00:43:28;;;;;;;4.28;3.87;;;6.80;99.90;;;;;;491715;242;27884;-74
2021/10/19 00:45:29;;;;;;;5.62;5.05;;;6.80;99.90;;;;;;491892;241;27966;-75
2021/10/19 00:47:31;;;;;;;6.57;4.70;;;6.70;99.90;;;;;;491902;242;27450;-75
2021/10/19 00:49:32;;;;;;;4.45;4.05;;;6.70;99.90;;;;;;491947;241;27418;-74
2021/10/19 00:51:33;;;;;;;6.28;4.80;;;6.80;99.90;;;;;;491931;241;27470;-74
2021/10/19 00:53:34;;;;;;;4.85;4.45;;;6.80;99.90;;;;;;491926;241;27445;-75
2021/10/19 00:55:36;;;;;;;5.70;4.70;;;6.90;99.90;;;;;;491950;241;27828;-74
2021/10/19 00:57:38;;;;;;;6.78;4.72;;;7.00;99.90;;;;;;491925;241;29354;-75
2021/10/19 00:59:38;;;;;;;6.97;4.90;;;7.00;99.90;;;;;;491935;241;28080;-74
2021/10/19 01:01:39;;;;;;;5.43;4.40;;;7.10;99.90;;;;;;491934;241;27370;-74
2021/10/19 01:03:41;;;;;;;5.78;5.28;;;7.10;99.90;;;;;;491934;242;27530;-75
2021/10/19 01:05:42;;;;;;;5.10;4.60;;;7.20;99.90;;;;;;491952;241;27378;-75
2021/10/19 01:07:43;;;;;;;6.55;5.82;;;7.40;99.90;;;;;;491920;241;27434;-75
2021/10/19 01:09:44;;;;;;;6.37;5.75;;;7.60;99.90;;;;;;491927;241;27433;-75
2021/10/19 01:11:46;;;;;;;5.97;5.37;;;7.70;99.90;;;;;;491957;241;27823;-75
2021/10/19 01:13:47;;;;;;;10.15;6.35;;;7.70;99.90;;;;;;491911;241;28933;-74
2021/10/19 01:15:49;;;;;;;6.68;5.55;;;7.80;99.90;;;;;;491966;242;27375;-74
2021/10/19 01:17:50;;;;;;;8.57;6.05;;;7.80;99.90;;;;;;491931;241;27375;-75
2021/10/19 01:19:51;;;;;;;10.68;5.50;;;7.80;99.90;;;;;;491915;241;27414;-74
2021/10/19 01:21:52;;;;;;;6.60;5.90;;;7.90;99.90;;;;;;491933;241;27382;-75
2021/10/19 01:23:53;;;;;;;5.50;5.00;;;7.90;99.90;;;;;;491930;241;27894;-76
2021/10/19 01:25:55;;;;;;;5.67;4.80;;;8.00;99.90;;;;;;491902;241;29242;-74
2021/10/19 01:27:56;;;;;;;6.40;5.60;;;7.90;99.90;;;;;;491914;241;28159;-75
2021/10/19 01:29:57;;;;;;;5.87;5.00;;;8.00;99.90;;;;;;491895;241;28323;-74
2021/10/19 01:31:58;;;;;;;6.53;5.90;;;8.00;99.90;;;;;;491800;242;28419;-75
2021/10/19 01:34:00;;;;;;;5.50;5.00;;;8.00;99.90;;;;;;491709;242;29156;-75
2021/10/19 01:36:01;;;;;;;6.47;5.03;;;8.10;99.90;;;;;;491952;241;28839;-75
2021/10/19 01:38:02;;;;;;;6.50;5.87;;;8.20;99.90;;;;;;491911;241;28793;-74
2021/10/19 01:40:03;;;;;;;6.33;5.73;;;8.30;99.90;;;;;;491915;241;27418;-75
2021/10/19 01:42:05;;;;;;;7.33;6.13;;;8.30;99.90;;;;;;491919;241;27896;-75
2021/10/19 01:44:06;;;;;;;6.83;6.13;;;8.40;99.90;;;;;;489674;241;28158;-74
2021/10/19 01:46:07;;;;;;;6.57;5.93;;;8.50;99.90;;;;;;491196;242;28648;-75
2021/10/19 01:48:09;;;;;;;7.47;5.47;;;8.70;99.90;;;;;;491510;242;28121;-75
2021/10/19 01:50:10;;;;;;;4.97;4.47;;;8.70;99.90;;;;;;491554;242;27998;-75
2021/10/19 01:52:11;;;;;;;5.80;4.67;;;8.90;99.90;;;;;;491523;242;27917;-75
2021/10/19 01:54:12;;;;;;;6.20;5.60;;;9.00;99.90;;;;;;491519;242;27949;-75
2021/10/19 01:56:13;;;;;;;6.90;5.20;;;9.10;99.90;;;;;;491538;242;28231;-75
2021/10/19 01:58:16;;;;;;;6.73;5.30;;;9.00;99.90;;;;;;491541;242;28280;-75
2021/10/19 02:00:16;;;;;;;5.60;5.03;;;8.90;99.90;;;;;;491424;242;28450;-75
2021/10/19 02:02:17;;;;;;;7.13;5.50;;;9.00;99.90;;;;;;491507;242;28486;-75
2021/10/19 02:04:18;;;;;;;5.17;4.67;;;9.00;99.90;;;;;;491610;242;28467;-76
2021/10/19 02:06:20;;;;;;;5.57;4.97;;;9.00;99.90;;;;;;491778;242;28407;-76
2021/10/19 02:08:21;;;;;;;6.00;5.50;;;9.00;99.90;;;;;;491742;242;28442;-75
2021/10/19 02:10:22;;;;;;;5.37;4.60;;;9.00;99.90;;;;;;491764;242;28061;-75
2021/10/19 02:12:23;;;;;;;5.67;5.00;;;9.10;99.90;;;;;;491705;242;27988;-76
2021/10/19 02:14:25;;;;;;;5.03;4.53;;;9.20;99.90;;;;;;491726;242;27988;-76
2021/10/19 02:16:26;;;;;;;4.80;4.27;;;9.20;99.90;;;;;;491767;242;28077;-75
2021/10/19 02:18:27;;;;;;;5.60;4.90;;;9.10;99.90;;;;;;491754;242;28131;-75
2021/10/19 02:20:28;;;;;;;5.50;5.00;;;9.10;99.90;;;;;;491702;242;28003;-75
2021/10/19 02:22:30;;;;;;;5.47;4.47;;;9.10;99.90;;;;;;491631;242;27590;-75
2021/10/19 02:24:31;;;;;;;5.20;4.50;;;9.00;99.90;;;;;;491594;240;28248;-74
2021/10/19 02:26:32;;;;;;;5.43;4.50;;;9.00;99.90;;;;;;491644;242;27978;-75
2021/10/19 02:28:33;;;;;;;4.73;4.33;;;9.10;99.90;;;;;;491621;241;27990;-75
2021/10/19 02:30:35;;;;;;;5.03;4.50;;;9.10;99.90;;;;;;491659;241;27946;-75
2021/10/19 02:32:36;;;;;;;5.63;4.57;;;9.20;99.90;;;;;;491600;242;27687;-75
2021/10/19 02:34:37;;;;;;;5.10;4.60;;;9.20;99.90;;;;;;491574;242;28008;-75
2021/10/19 02:36:38;;;;;;;4.80;4.10;;;9.20;99.90;;;;;;491627;241;28554;-75
2021/10/19 02:38:40;;;;;;;5.13;4.10;;;9.20;99.90;;;;;;491602;241;28486;-74
2021/10/19 02:40:41;;;;;;;4.97;4.50;;;9.20;99.90;;;;;;491705;241;28649;-76
2021/10/19 02:42:42;;;;;;;4.30;3.90;;;9.20;99.90;;;;;;491850;241;28902;-76
2021/10/19 02:44:43;;;;;;;4.97;4.47;;;9.20;99.90;;;;;;491836;242;28203;-76
2021/10/19 02:46:44;;;;;;;4.70;4.03;;;9.20;99.90;;;;;;491810;241;28426;-76
2021/10/19 02:48:46;;;;;;;4.67;4.20;;;9.30;99.90;;;;;;491792;242;28027;-76
2021/10/19 02:50:47;;;;;;;4.60;4.20;;;9.30;99.90;;;;;;491817;242;27832;-76
2021/10/19 02:52:48;;;;;;;4.70;4.20;;;9.40;99.90;;;;;;491746;241;28068;-76
2021/10/19 02:54:51;;;;;;;4.50;4.00;;;9.50;99.90;;;;;;491703;241;27936;-76
2021/10/19 02:56:51;;;;;;;5.20;4.70;;;9.50;99.90;;;;;;491614;242;28065;-75
2021/10/19 02:58:52;;;;;;;5.33;4.63;;;9.60;99.90;;;;;;491655;242;28018;-76
2021/10/19 03:00:53;;;;;;;5.83;4.37;;;9.60;99.90;;;;;;491617;241;28093;-76
2021/10/19 03:02:54;;;;;;;4.10;3.70;;;9.60;99.90;;;;;;491602;242;28009;-75
2021/10/19 03:04:56;;;;;;;4.60;4.20;;;9.60;99.90;;;;;;491611;242;27598;-76
2021/10/19 03:06:57;;;;;;;4.40;4.00;;;9.70;99.90;;;;;;491568;241;28025;-76
2021/10/19 03:08:58;;;;;;;5.43;4.40;;;9.70;99.90;;;;;;491587;242;28087;-76
2021/10/19 03:10:59;;;;;;;5.47;4.97;;;9.70;99.90;;;;;;491550;242;27993;-76
2021/10/19 03:13:01;;;;;;;6.70;4.27;;;9.70;99.90;;;;;;491587;241;27922;-76
2021/10/19 03:15:02;;;;;;;4.47;4.07;;;9.70;99.90;;;;;;491625;241;28523;-76
2021/10/19 03:17:03;;;;;;;5.17;4.67;;;9.60;99.90;;;;;;491664;241;28822;-76
2021/10/19 03:19:04;;;;;;;5.00;4.50;;;9.60;99.90;;;;;;491614;242;27711;-76
2021/10/19 03:21:06;;;;;;;4.80;4.10;;;9.60;99.90;;;;;;491593;242;28586;-76
2021/10/19 03:23:07;;;;;;;4.87;3.87;;;9.50;99.90;;;;;;491513;242;28665;-76
2021/10/19 03:25:08;;;;;;;5.00;4.50;;;9.50;99.90;;;;;;491596;242;27821;-76
2021/10/19 03:27:09;;;;;;;5.10;4.57;;;9.60;99.90;;;;;;491608;242;27756;-76
2021/10/19 03:29:11;;;;;;;5.30;4.63;;;9.50;99.90;;;;;;491595;242;27612;-76
2021/10/19 03:31:12;;;;;;;5.80;4.60;;;9.50;99.90;;;;;;491625;241;27981;-76
2021/10/19 03:33:13;;;;;;;5.27;4.77;;;9.60;99.90;;;;;;491636;241;27988;-75
2021/10/19 03:35:14;;;;;;;5.80;5.27;;;9.60;99.90;;;;;;491626;242;27949;-75
2021/10/19 03:37:16;;;;;;;6.80;5.50;;;9.60;99.90;;;;;;491601;242;27820;-75
2021/10/19 03:39:17;;;;;;;5.60;4.80;;;9.60;99.90;;;;;;491607;242;27834;-76
2021/10/19 03:41:18;;;;;;;6.23;4.60;;;9.60;99.90;;;;;;491567;242;27989;-75
2021/10/19 03:43:19;;;;;;;6.37;5.60;;;9.70;99.90;;;;;;491619;242;28077;-76
2021/10/19 03:45:21;;;;;;;6.40;5.80;;;9.70;99.90;;;;;;491590;241;27810;-76
2021/10/19 03:47:22;;;;;;;5.90;5.30;;;9.60;99.90;;;;;;491605;241;27985;-76
2021/10/19 03:49:23;;;;;;;6.00;5.40;;;9.60;99.90;;;;;;491575;242;28057;-76
2021/10/19 03:51:24;;;;;;;5.30;4.80;;;9.60;99.90;;;;;;491574;242;28563;-75
2021/10/19 03:53:26;;;;;;;6.43;5.43;;;9.60;99.90;;;;;;491566;242;27971;-76
2021/10/19 03:55:27;;;;;;;7.50;5.80;;;9.70;99.90;;;;;;491579;242;28353;-76
2021/10/19 03:57:28;;;;;;;7.70;6.23;;;9.70;99.90;;;;;;491534;241;28496;-76
2021/10/19 03:59:29;;;;;;;7.73;6.70;;;9.70;99.90;;;;;;491589;241;28450;-75
2021/10/19 04:01:31;;;;;;;13.70;5.53;;;9.70;99.90;;;;;;491561;242;28097;-76
2021/10/19 04:03:32;;;;;;;8.97;6.30;;;9.70;99.90;;;;;;491563;241;28023;-76
2021/10/19 04:05:33;;;;;;;6.50;5.83;;;9.70;99.90;;;;;;491559;242;28337;-76
2021/10/19 04:07:35;;;;;;;7.50;6.47;;;9.70;99.90;;;;;;491578;242;28108;-75
2021/10/19 04:09:36;;;;;;;6.97;5.80;;;9.70;99.90;;;;;;491572;241;28069;-76
2021/10/19 04:11:37;;;;;;;6.43;5.80;;;9.70;99.90;;;;;;491590;241;27707;-76
2021/10/19 04:13:38;;;;;;;6.40;5.80;;;9.70;99.90;;;;;;491591;241;28076;-76
2021/10/19 04:15:39;;;;;;;6.57;5.90;;;9.70;99.90;;;;;;491542;241;27948;-76
2021/10/19 04:17:41;;;;;;;6.23;5.63;;;9.70;99.90;;;;;;491577;241;27875;-75
2021/10/19 04:19:42;;;;;;;7.80;6.10;;;9.70;99.90;;;;;;491556;241;27820;-76
2021/10/19 04:21:47;;;;;;;6.53;5.93;;;9.70;99.90;;;;;;491542;242;27960;-76
2021/10/19 04:23:44;;;;;;;6.20;5.53;;;9.70;99.90;;;;;;491304;242;27972;-76
2021/10/19 04:25:46;;;;;;;7.10;6.00;;;9.70;99.90;;;;;;491558;241;27788;-76
2021/10/19 04:27:47;;;;;;;7.60;6.47;;;9.70;99.90;;;;;;491580;241;28324;-76
2021/10/19 04:29:48;;;;;;;7.70;5.97;;;9.70;99.90;;;;;;491566;241;28103;-75
2021/10/19 04:31:49;;;;;;;6.40;5.80;;;9.70;99.90;;;;;;491563;241;28634;-76
2021/10/19 04:33:51;;;;;;;8.60;5.87;;;9.70;99.90;;;;;;491559;242;28314;-76
2021/10/19 04:35:52;;;;;;;8.10;5.93;;;9.70;99.90;;;;;;491579;242;28372;-75
2021/10/19 04:37:53;;;;;;;6.87;6.03;;;9.70;99.90;;;;;;491577;242;28344;-76
2021/10/19 04:39:54;;;;;;;17.47;16.17;;;9.70;99.90;;;;;;491595;242;28103;-76
2021/10/19 04:41:56;;;;;;;7.23;5.40;;;9.70;99.90;;;;;;491595;241;27599;-76
2021/10/19 04:43:57;;;;;;;7.53;6.57;;;9.70;99.90;;;;;;491577;242;27919;-76
2021/10/19 04:45:58;;;;;;;11.90;10.80;;;9.70;99.90;;;;;;491586;242;27943;-76
2021/10/19 04:48:03;;;;;;;9.03;8.17;;;9.70;99.90;;;;;;491551;241;27589;-76
2021/10/19 04:50:01;;;;;;;7.83;6.00;;;9.70;99.90;;;;;;491367;242;27723;-75
2021/10/19 04:52:03;;;;;;;12.83;11.73;;;9.70;99.90;;;;;;491572;242;28037;-75
2021/10/19 04:54:04;;;;;;;7.07;6.20;;;9.70;99.90;;;;;;491553;241;28016;-75
2021/10/19 04:56:10;;;;;;;7.80;6.60;;;9.70;99.90;;;;;;491539;242;27876;-75
2021/10/19 04:58:09;;;;;;;8.67;6.97;;;9.70;99.90;;;;;;491492;241;27899;-75
2021/10/19 05:00:11;;;;;;;7.00;6.30;;;9.70;99.90;;;;;;491559;241;27974;-75
2021/10/19 05:02:12;;;;;;;8.40;7.10;;;9.70;99.90;;;;;;491553;241;27724;-75
2021/10/19 05:04:15;;;;;;;9.60;6.53;;;9.70;99.90;;;;;;491598;241;28102;-75
2021/10/19 05:06:14;;;;;;;7.37;6.57;;;9.70;99.90;;;;;;491445;242;27613;-75
2021/10/19 05:08:16;;;;;;;9.17;7.47;;;9.70;99.90;;;;;;491553;242;28605;-75
2021/10/19 05:10:17;;;;;;;7.90;6.70;;;9.80;99.90;;;;;;491542;241;28525;-75
2021/10/19 05:12:18;;;;;;;10.03;7.20;;;9.70;99.90;;;;;;491566;242;28346;-75
2021/10/19 05:14:19;;;;;;;9.30;7.30;;;9.80;99.90;;;;;;491558;242;28458;-75
2021/10/19 05:16:21;;;;;;;10.47;7.60;;;9.80;99.90;;;;;;491547;242;28039;-75
2021/10/19 05:18:22;;;;;;;7.70;6.13;;;9.70;99.90;;;;;;491528;241;27994;-75
2021/10/19 05:20:23;;;;;;;9.70;7.20;;;9.70;99.90;;;;;;491556;242;28001;-75
2021/10/19 05:22:24;;;;;;;8.30;7.10;;;9.80;99.90;;;;;;491504;242;27967;-75
2021/10/19 05:24:26;;;;;;;9.67;8.07;;;9.80;99.90;;;;;;491521;242;27964;-75
2021/10/19 05:26:27;;;;;;;9.90;7.70;;;9.80;99.90;;;;;;491541;241;27919;-75
2021/10/19 05:28:28;;;;;;;9.43;7.37;;;9.80;99.90;;;;;;491526;242;27999;-75
2021/10/19 05:30:29;;;;;;;9.80;7.43;;;9.80;99.90;;;;;;491540;241;27880;-75
2021/10/19 05:32:31;;;;;;;11.03;8.00;;;9.80;99.90;;;;;;491548;241;27735;-75
2021/10/19 05:34:32;;;;;;;10.83;8.70;;;9.80;99.90;;;;;;491540;242;27734;-75
2021/10/19 05:36:33;;;;;;;11.27;8.50;;;9.90;99.90;;;;;;491552;242;27823;-75
2021/10/19 05:38:34;;;;;;;11.20;8.13;;;9.90;99.90;;;;;;491501;242;28422;-75
2021/10/19 05:40:36;;;;;;;12.97;8.33;;;9.90;99.90;;;;;;491542;242;28546;-75
2021/10/19 05:42:37;;;;;;;10.10;8.30;;;9.90;99.90;;;;;;491544;242;28436;-75
2021/10/19 05:44:38;;;;;;;10.07;8.87;;;9.90;99.90;;;;;;491538;242;28346;-75
2021/10/19 05:46:39;;;;;;;10.10;8.50;;;9.90;99.90;;;;;;491536;242;27953;-75
2021/10/19 05:48:41;;;;;;;8.60;7.60;;;9.90;99.90;;;;;;491520;242;27471;-76
2021/10/19 05:50:42;;;;;;;11.20;8.10;;;9.90;99.90;;;;;;491536;242;27857;-75
2021/10/19 05:52:43;;;;;;;11.00;7.60;;;9.90;99.90;;;;;;491547;242;27932;-76
2021/10/19 05:54:44;;;;;;;7.40;6.53;;;9.90;99.90;;;;;;491532;242;27504;-75
2021/10/19 05:56:46;;;;;;;8.70;7.30;;;9.90;99.90;;;;;;491515;242;27942;-76
2021/10/19 05:58:47;;;;;;;9.10;8.10;;;10.00;99.90;;;;;;491545;242;27685;-75
2021/10/19 06:00:48;;;;;;;9.93;8.20;;;9.90;99.90;;;;;;491563;242;27996;-75
2021/10/19 06:02:49;;;;;;;10.73;8.40;;;9.90;99.90;;;;;;491550;241;28040;-76
2021/10/19 06:04:51;;;;;;;10.33;7.63;;;10.00;99.90;;;;;;491536;241;28015;-76
2021/10/19 06:06:52;;;;;;;11.73;7.80;;;10.00;99.90;;;;;;491548;241;28701;-76
2021/10/19 06:08:53;;;;;;;9.50;8.07;;;10.00;99.90;;;;;;491532;242;28270;-76
2021/10/19 06:10:56;;;;;;;10.90;8.30;;;10.00;99.90;;;;;;491564;242;28094;-75
2021/10/19 06:12:56;;;;;;;10.23;8.70;;;10.10;99.90;;;;;;491467;242;27899;-75
2021/10/19 06:14:57;;;;;;;11.43;9.13;;;10.10;99.90;;;;;;491579;241;27918;-75
2021/10/19 06:16:58;;;;;;;10.50;8.30;;;10.10;99.90;;;;;;491077;242;27950;-75
2021/10/19 06:19:02;;;;;;;11.00;8.67;;;;;;;;;;491572;241;27963;-75
2021/10/19 06:21:04;;;;;;;8.50;7.43;;;10.10;99.90;;;;;;491560;241;26811;-76
2021/10/19 06:23:05;;;;;;;9.40;7.93;;;10.10;99.90;;;;;;491561;241;28418;-76
2021/10/19 06:25:06;;;;;;;11.13;8.40;;;10.10;99.90;;;;;;491560;242;28411;-75
2021/10/19 06:27:07;;;;;;;11.80;8.73;;;10.10;99.90;;;;;;491542;241;28364;-75
2021/10/19 06:29:09;;;;;;;10.17;8.17;;;10.10;99.90;;;;;;491533;242;27961;-75
2021/10/19 06:31:10;;;;;;;10.57;8.50;;;10.20;99.90;;;;;;491542;241;27914;-76
2021/10/19 06:33:11;;;;;;;9.17;7.33;;;10.20;99.90;;;;;;491564;241;27842;-76
2021/10/19 06:35:12;;;;;;;8.00;6.70;;;10.20;99.90;;;;;;491570;241;27827;-76
2021/10/19 06:37:14;;;;;;;9.50;7.10;;;10.20;99.90;;;;;;491562;241;27953;-76
2021/10/19 06:39:15;;;;;;;8.30;7.17;;;10.30;99.90;;;;;;491558;242;27936;-76
2021/10/19 06:41:16;;;;;;;7.40;6.57;;;10.30;99.90;;;;;;491585;242;27950;-76
2021/10/19 06:43:17;;;;;;;8.30;7.00;;;10.30;99.90;;;;;;491604;242;28092;-76
2021/10/19 06:45:19;;;;;;;8.93;6.73;;;10.30;99.90;;;;;;491591;241;28401;-76
2021/10/19 06:47:20;;;;;;;7.80;6.60;;;10.30;99.90;;;;;;491612;241;28431;-76
2021/10/19 06:49:21;;;;;;;7.10;6.40;;;10.30;99.90;;;;;;491611;241;28650;-76
2021/10/19 06:51:22;;;;;;;6.93;5.90;;;10.30;99.90;;;;;;491596;242;27844;-76
2021/10/19 06:53:24;;;;;;;7.60;6.80;;;10.30;99.90;;;;;;491582;241;27846;-76
2021/10/19 06:55:25;;;;;;;7.27;5.90;;;10.40;99.90;;;;;;491609;242;27985;-76
2021/10/19 06:57:30;;;;;;;5.50;4.90;;;10.40;99.90;;;;;;491601;242;28041;-76
2021/10/19 06:59:27;;;;;;;6.43;5.70;;;10.40;99.90;;;;;;491286;242;27856;-76
2021/10/19 07:01:29;;;;;;;6.10;5.50;;;10.40;99.90;;;;;;491582;241;27914;-76
2021/10/19 07:03:30;;;;;;;8.30;5.70;;;10.40;99.90;;;;;;491488;242;27974;-76
2021/10/19 07:05:31;;;;;;;5.60;4.97;;;10.40;99.90;;;;;;491530;242;27959;-76
2021/10/19 07:07:32;;;;;;;5.23;4.73;;;10.50;99.90;;;;;;491560;242;27941;-76
2021/10/19 07:09:34;;;;;;;5.60;4.90;;;10.60;99.90;;;;;;491551;241;28531;-76
2021/10/19 07:11:35;;;;;;;5.10;4.63;;;10.50;99.90;;;;;;491584;242;28570;-76
2021/10/19 07:13:36;;;;;;;5.10;4.60;;;10.50;99.90;;;;;;491565;241;28561;-76
2021/10/19 07:15:37;;;;;;;5.20;4.70;;;10.50;99.90;;;;;;491439;241;28017;-76
2021/10/19 07:17:39;;;;;;;5.20;4.70;;;10.60;99.90;;;;;;491570;242;28090;-76
2021/10/19 07:19:40;;;;;;;5.30;4.80;;;10.70;99.90;;;;;;491567;241;27942;-76
2021/10/19 07:21:41;;;;;;;5.10;4.60;;;10.70;99.90;;;;;;491572;242;27855;-76
2021/10/19 07:23:42;;;;;;;5.30;4.80;;;10.80;99.90;;;;;;491556;242;27939;-75
2021/10/19 07:25:44;;;;;;;5.40;4.90;;;10.80;99.90;;;;;;491601;242;27889;-75
2021/10/19 07:27:45;;;;;;;5.97;4.67;;;10.80;99.90;;;;;;491594;241;28194;-76
2021/10/19 07:29:46;;;;;;;5.87;5.00;;;10.80;99.90;;;;;;491549;241;28019;-75
2021/10/19 07:31:47;;;;;;;5.43;4.93;;;10.90;99.90;;;;;;491559;242;28022;-75
2021/10/19 07:33:49;;;;;;;4.90;4.37;;;10.90;99.90;;;;;;491555;242;28612;-75
2021/10/19 07:36:03;;;;;;;8.00;5.87;;;;;;;;;;491006;242;28206;-75
2021/10/19 07:38:07;;;;;;;5.70;5.10;;;;;;;;;;491538;241;26951;-75
2021/10/19 07:40:08;;;;;;;5.53;5.03;;;11.00;99.90;;;;;;491597;241;27337;-76
2021/10/19 07:42:10;;;;;;;6.07;5.27;;;11.00;99.90;;;;;;491594;242;29278;-76
2021/10/19 07:44:11;;;;;;;5.97;5.10;;;11.00;99.90;;;;;;491617;241;28509;-76
2021/10/19 07:46:12;;;;;;;5.70;5.20;;;11.00;99.90;;;;;;491613;241;27987;-76
2021/10/19 07:48:13;;;;;;;5.40;4.90;;;11.00;99.90;;;;;;491613;242;27913;-76
2021/10/19 07:50:15;;;;;;;6.03;5.33;;;11.00;99.90;;;;;;491566;242;27982;-76
2021/10/19 07:52:16;;;;;;;5.70;5.10;;;11.00;99.90;;;;;;491609;241;28082;-76
2021/10/19 07:54:17;;;;;;;6.10;5.00;;;11.10;99.90;;;;;;491588;242;27991;-76
2021/10/19 07:56:20;;;;;;;5.80;5.20;;;11.10;99.90;;;;;;491594;241;27990;-76
2021/10/19 07:58:20;;;;;;;6.73;5.30;;;11.10;99.90;;;;;;491542;242;27766;-76
2021/10/19 08:00:21;;;;;;;7.43;6.40;;;11.10;99.90;;;;;;491623;242;27741;-76
2021/10/19 08:02:22;;;;;;;6.37;5.40;;;11.20;99.90;;;;;;491592;241;27872;-75
2021/10/19 08:04:23;;;;;;;6.07;5.47;;;11.20;99.90;;;;;;491627;242;28526;-76
2021/10/19 08:06:25;;;;;;;6.10;5.47;;;11.20;99.90;;;;;;491463;242;28497;-76
2021/10/19 08:08:26;;;;;;;8.20;6.60;;;11.30;99.90;;;;;;491088;242;28515;-76
2021/10/19 08:10:27;;;;;;;7.40;6.10;;;11.30;99.90;;;;;;491587;241;27871;-76
2021/10/19 08:12:28;;;;;;;6.53;5.63;;;11.30;99.90;;;;;;491557;241;28287;-76
2021/10/19 08:14:30;;;;;;;6.47;5.80;;;11.40;99.90;;;;;;491622;241;28132;-76
2021/10/19 08:16:31;;;;;;;6.53;5.43;;;11.40;99.90;;;;;;491633;242;27987;-76
2021/10/19 08:18:32;;;;;;;7.10;5.37;;;11.40;99.90;;;;;;491620;242;27977;-76
2021/10/19 08:20:33;;;;;;;8.37;7.10;;;11.40;99.90;;;;;;491591;241;27992;-75
2021/10/19 08:22:35;;;;;;;7.13;5.87;;;11.50;99.90;;;;;;491595;242;27917;-75
2021/10/19 08:24:36;;;;;;;5.90;5.30;;;11.50;99.90;;;;;;491596;242;28073;-76
2021/10/19 08:26:37;;;;;;;7.40;6.30;;;11.60;99.90;;;;;;491613;242;28205;-76
2021/10/19 08:28:43;;;;;;;8.00;6.80;;;11.50;99.90;;;;;;491611;242;28057;-75
2021/10/19 08:30:40;;;;;;;8.17;7.13;;;11.60;99.90;;;;;;491239;242;28682;-75
2021/10/19 08:32:42;;;;;;;10.13;7.63;;;11.60;99.90;;;;;;491503;242;28636;-76
2021/10/19 08:34:42;;;;;;;10.67;7.70;;;11.70;99.90;;;;;;491425;242;28226;-76
2021/10/19 08:36:43;;;;;;;8.73;7.27;;;11.70;99.90;;;;;;491502;242;28460;-76
2021/10/19 08:38:46;;;;;;;7.90;6.70;;;11.70;99.90;;;;;;491531;241;28277;-76
2021/10/19 08:40:46;;;;;;;7.50;6.70;;;11.80;99.90;;;;;;491484;242;28290;-76
2021/10/19 08:42:53;;;;;;;7.33;6.53;;;11.80;99.90;;;;;;491542;242;28335;-75
2021/10/19 08:44:51;;;;;;;8.93;7.20;;;11.90;99.90;;;;;;491333;242;28794;-76
2021/10/19 08:46:53;;;;;;;11.07;7.10;;;11.90;99.90;;;;;;491526;242;28816;-76
2021/10/19 08:48:54;;;;;;;9.03;7.43;;;11.90;99.90;;;;;;491561;241;28831;-74
2021/10/19 08:50:57;;;;;;;6.93;6.07;;;;;;;;;;491513;241;28231;-76
2021/10/19 08:52:57;;;;;;;6.93;6.23;;;12.00;99.90;;;;;;491533;242;27234;-76
2021/10/19 08:54:59;;;;;;;7.00;6.20;;;12.00;99.90;;;;;;491546;241;28403;-76
2021/10/19 08:57:00;;;;;;;8.30;6.20;;;12.00;99.90;;;;;;491551;242;28665;-76
2021/10/19 08:59:01;;;;;;;7.43;5.90;;;12.10;99.90;;;;;;491485;242;28694;-75
2021/10/19 09:01:02;;;;;;;8.07;6.57;;;12.10;99.90;;;;;;491539;242;28645;-76
2021/10/19 09:03:04;;;;;;;8.30;7.40;;;12.10;99.90;;;;;;491575;242;28234;-76
2021/10/19 09:05:05;;;;;;;7.73;6.63;;;12.20;99.90;;;;;;491494;241;28277;-76
2021/10/19 09:07:06;;;;;;;6.10;5.50;;;12.20;99.90;;;;;;491550;242;28505;-76
2021/10/19 09:09:08;;;;;;;7.53;6.20;;;;;;;;;;491546;242;28327;-76
2021/10/19 09:11:10;;;;;;;8.27;6.33;;;12.40;99.90;;;;;;491431;242;28243;-76
2021/10/19 09:13:11;;;;;;;8.00;6.77;;;12.50;99.90;;;;;;491525;242;28200;-76
2021/10/19 09:15:13;;;;;;;6.67;5.60;;;12.50;99.90;;;;;;491538;241;28404;-76
2021/10/19 09:17:13;;;;;;;7.03;6.23;;;12.50;99.90;;;;;;491489;242;28469;-77
2021/10/19 09:19:15;;;;;;;6.43;5.83;;;12.50;99.90;;;;;;491514;242;28993;-76
2021/10/19 09:21:16;;;;;;;7.30;6.50;;;12.60;99.90;;;;;;491540;242;28712;-76
2021/10/19 09:23:18;;;;;;;7.40;6.27;;;12.60;99.90;;;;;;491533;242;28818;-76
2021/10/19 09:25:18;;;;;;;7.90;5.90;;;12.60;99.90;;;;;;491488;242;28808;-76
2021/10/19 09:27:20;;;;;;;5.83;5.20;;;12.60;99.90;;;;;;491529;242;28086;-75
2021/10/19 09:29:21;;;;;;;6.77;5.80;;;12.60;99.90;;;;;;491546;242;28259;-76
2021/10/19 09:31:22;;;;;;;7.23;5.87;;;12.70;99.90;;;;;;491521;242;28532;-76
2021/10/19 09:33:23;;;;;;;5.87;5.30;;;12.70;99.90;;;;;;491527;242;28182;-76
2021/10/19 09:35:25;;;;;;;6.67;5.27;;;12.60;99.90;;;;;;491535;242;28850;-76
2021/10/19 09:37:26;;;;;;;5.07;4.67;;;12.60;99.90;;;;;;491534;242;28315;-76
2021/10/19 09:39:28;;;;;;;7.27;5.60;;;;;;;;;;491537;242;28550;-76
2021/10/19 09:41:29;;;;;;;5.80;5.20;;;12.60;99.90;;;;;;491555;242;26914;-76
2021/10/19 09:43:32;;;;;;;5.77;4.60;;;12.70;99.90;;;;;;491524;241;28551;-76
2021/10/19 09:45:32;;;;;;;5.23;4.63;;;12.80;99.90;;;;;;491504;242;28862;-76
2021/10/19 09:47:37;;;;;;;5.40;4.90;;;12.90;99.90;;;;;;491522;242;28046;-76
2021/10/19 09:49:35;;;;;;;5.73;5.20;;;13.00;99.90;;;;;;491262;242;28219;-76
2021/10/19 09:51:37;;;;;;;6.17;4.87;;;13.00;99.90;;;;;;491546;242;28837;-76
2021/10/19 09:53:37;;;;;;;6.40;5.50;;;12.90;99.90;;;;;;491494;242;28591;-76
2021/10/19 09:55:38;;;;;;;6.00;5.00;;;12.90;99.90;;;;;;491530;242;28809;-76
2021/10/19 09:57:42;;;;;;;7.70;6.03;;;13.00;99.90;;;;;;491531;242;28828;-76
2021/10/19 09:59:41;;;;;;;6.90;5.10;;;13.00;99.90;;;;;;491364;242;28899;-76
2021/10/19 10:01:42;;;;;;;6.00;4.80;;;13.00;99.90;;;;;;491544;242;28264;-76
2021/10/19 10:03:46;;;;;;;6.13;5.03;;;13.00;99.90;;;;;;491527;242;28055;-76
2021/10/19 10:05:45;;;;;;;5.57;4.90;;;13.10;99.90;;;;;;491344;242;28209;-76
2021/10/19 10:07:46;;;;;;;5.13;4.73;;;13.20;99.90;;;;;;491520;242;28384;-76
2021/10/19 10:09:47;;;;;;;6.13;4.97;;;13.30;99.90;;;;;;491411;240;28558;-76
2021/10/19 10:11:48;;;;;;;5.40;4.90;;;13.30;99.90;;;;;;491501;242;28241;-76
2021/10/19 10:13:50;;;;;;;5.67;4.63;;;13.30;99.90;;;;;;491355;240;28295;-76
2021/10/19 10:15:51;;;;;;;5.60;5.10;;;13.30;99.90;;;;;;491325;242;28438;-76
2021/10/19 10:17:52;;;;;;;5.43;4.90;;;13.30;99.90;;;;;;491471;242;29354;-76
2021/10/19 10:19:53;;;;;;;5.77;5.13;;;13.30;99.90;;;;;;491499;242;28711;-76
2021/10/19 10:21:55;;;;;;;7.63;5.00;;;13.30;99.90;;;;;;491505;242;28724;-76
2021/10/19 10:23:56;;;;;;;5.60;5.10;;;13.30;99.90;;;;;;491553;242;28731;-76
2021/10/19 10:25:57;;;;;;;7.00;5.23;;;13.40;99.90;;;;;;491551;242;28647;-76
2021/10/19 10:27:58;;;;;;;5.87;5.13;;;13.50;99.90;;;;;;491536;242;28184;-76
2021/10/19 10:30:00;;;;;;;4.60;4.20;;;13.50;99.90;;;;;;491534;242;28450;-76
2021/10/19 10:32:01;;;;;;;5.47;4.97;;;13.60;99.90;;;;;;491498;242;28858;-76
2021/10/19 10:34:02;;;;;;;5.30;4.57;;;13.80;99.90;;;;;;491538;242;28305;-76
2021/10/19 10:36:03;;;;;;;4.97;4.47;;;13.80;99.90;;;;;;491545;242;28136;-76